createdAt,value
2019-04-23T00:02:29.782Z,15.22
2019-04-23T00:05:02.095Z,15.25
2019-04-23T00:15:13.477Z,15.11
2019-04-23T00:17:48.920Z,15.09
2019-04-23T00:20:20.083Z,15.09
2019-04-23T00:23:02.120Z,15.01
2019-04-23T00:25:49.834Z,15.01
2019-04-23T00:28:16.508Z,14.99
2019-04-23T00:33:21.872Z,14.88
2019-04-23T00:35:50.103Z,14.88
2019-04-23T00:38:27.938Z,14.77
2019-04-23T00:40:58.297Z,14.75
2019-04-23T00:43:30.598Z,14.71
2019-04-23T00:45:59.317Z,14.62
2019-04-23T00:48:36.472Z,14.50
2019-04-23T00:51:23.915Z,14.46
2019-04-23T00:53:32.811Z,14.36
2019-04-23T00:56:26.665Z,14.32
2019-04-23T01:01:18.542Z,14.24
2019-04-23T01:03:50.411Z,14.21
2019-04-23T01:06:19.356Z,14.22
2019-04-23T01:08:52.306Z,14.12
2019-04-23T01:11:27.509Z,14.11
2019-04-23T01:13:55.638Z,14.07
2019-04-23T01:16:31.755Z,14.08
2019-04-23T01:19:24.414Z,14.04
2019-04-23T01:21:18.042Z,13.96
2019-04-23T01:24:09.571Z,14.03
2019-04-23T01:27:35.829Z,13.93
2019-04-23T01:29:51.812Z,13.83
2019-04-23T01:32:30.421Z,13.65
2019-04-23T01:35:06.634Z,13.70
2019-04-23T01:37:33.144Z,13.69
2019-04-23T01:40:09.695Z,13.72
2019-04-23T01:42:44.217Z,13.57
2019-04-23T01:45:11.767Z,13.53
2019-04-23T01:47:40.627Z,13.45
2019-04-23T01:50:14.174Z,13.46
2019-04-23T01:52:53.938Z,13.48
2019-04-23T01:55:24.742Z,13.43
2019-04-23T01:58:04.525Z,13.41
2019-04-23T02:00:22.497Z,13.31
2019-04-23T02:02:58.999Z,13.25
2019-04-23T02:10:51.246Z,13.16
2019-04-23T02:15:37.403Z,13.05
2019-04-23T02:18:13.290Z,12.97
2019-04-23T02:20:42.976Z,12.89
2019-04-23T02:28:25.785Z,12.74
2019-04-23T02:33:44.698Z,12.64
2019-04-23T02:36:05.449Z,12.58
2019-04-23T02:38:54.535Z,12.59
2019-04-23T02:44:11.078Z,12.53
2019-04-23T02:46:32.119Z,12.51
2019-04-23T02:49:18.081Z,12.40
2019-04-23T02:54:27.157Z,12.36
2019-04-23T02:59:30.119Z,12.35
2019-04-23T03:01:53.982Z,12.38
2019-04-23T03:04:32.847Z,12.34
2019-04-23T03:07:14.152Z,12.38
2019-04-23T03:12:12.036Z,12.32
2019-04-23T03:14:37.715Z,12.38
2019-04-23T03:19:45.544Z,12.40
2019-04-23T03:30:13.448Z,12.25
2019-04-23T03:37:49.003Z,12.26
2019-04-23T03:43:04.439Z,12.07
2019-04-23T03:45:37.043Z,12.16
2019-04-23T03:48:07.998Z,12.09
2019-04-23T03:50:35.840Z,12.04
2019-04-23T03:53:25.688Z,12.09
2019-04-23T03:55:37.778Z,12.18
2019-04-23T03:58:12.435Z,12.08
2019-04-23T04:03:42.526Z,12.03
2019-04-23T04:08:18.489Z,11.99
2019-04-23T04:13:47.351Z,11.89
2019-04-23T04:18:45.819Z,11.80
2019-04-23T04:23:43.150Z,11.74
2019-04-23T04:26:45.850Z,11.83
2019-04-23T04:31:42.856Z,11.73
2019-04-23T04:34:21.421Z,11.80
2019-04-23T04:36:45.321Z,11.79
2019-04-23T04:39:07.347Z,11.78
2019-04-23T04:41:55.423Z,11.82
2019-04-23T04:52:15.851Z,11.71
2019-04-23T04:57:00.164Z,11.77
2019-04-23T04:59:35.141Z,11.76
2019-04-23T05:02:30.398Z,11.75
2019-04-23T05:07:09.312Z,11.89
2019-04-23T05:12:19.246Z,11.97
2019-04-23T05:17:24.144Z,12.01
2019-04-23T05:22:33.672Z,11.95
2019-04-23T05:24:51.422Z,12.00
2019-04-23T05:27:27.569Z,11.99
2019-04-23T05:30:07.759Z,12.17
2019-04-23T05:32:34.306Z,12.16
2019-04-23T05:35:03.517Z,12.33
2019-04-23T05:37:55.699Z,12.58
2019-04-23T05:45:21.673Z,13.04
2019-04-23T05:47:58.619Z,12.98
2019-04-23T05:50:38.732Z,12.82
2019-04-23T05:52:59.801Z,12.92
2019-04-23T05:55:32.270Z,12.80
2019-04-23T05:58:02.602Z,12.97
2019-04-23T06:00:39.930Z,13.07
2019-04-23T06:03:12.057Z,13.17
2019-04-23T06:08:18.734Z,13.14
2019-04-23T06:11:00.911Z,13.12
2019-04-23T06:13:19.192Z,13.13
2019-04-23T06:15:52.082Z,13.31
2019-04-23T06:18:30.453Z,13.36
2019-04-23T06:23:38.160Z,13.53
2019-04-23T06:28:57.394Z,13.66
2019-04-23T06:34:04.230Z,13.65
2019-04-23T06:39:35.984Z,13.74
2019-04-23T06:44:45.782Z,13.96
2019-04-23T06:47:03.198Z,13.70
2019-04-23T06:49:37.074Z,14.06
2019-04-23T06:52:14.734Z,14.27
2019-04-23T06:54:52.974Z,14.44
2019-04-23T06:59:42.493Z,14.35
2019-04-23T07:02:20.654Z,14.24
2019-04-23T07:04:58.604Z,14.39
2019-04-23T07:09:51.675Z,14.60
2019-04-23T07:12:41.122Z,14.56
2019-04-23T07:17:42.801Z,14.72
2019-04-23T07:20:01.306Z,14.95
2019-04-23T07:22:42.793Z,14.94
2019-04-23T07:25:08.260Z,15.08
2019-04-23T07:27:34.689Z,15.12
2019-04-23T07:30:14.326Z,15.16
2019-04-23T07:32:50.919Z,15.23
2019-04-23T07:35:15.808Z,15.35
2019-04-23T07:38:01.842Z,15.23
2019-04-23T07:40:37.475Z,15.27
2019-04-23T07:43:09.026Z,15.16
2019-04-23T07:46:04.216Z,15.20
2019-04-23T07:48:22.493Z,15.04
2019-04-23T07:50:57.889Z,15.06
2019-04-23T07:53:39.915Z,15.00
2019-04-23T07:56:08.289Z,15.19
2019-04-23T07:58:42.972Z,15.13
2019-04-23T08:01:12.517Z,15.17
2019-04-23T08:03:48.290Z,15.25
2019-04-23T08:06:16.530Z,15.23
2019-04-23T08:08:56.527Z,15.40
2019-04-23T08:14:08.361Z,15.70
2019-04-23T08:16:53.795Z,15.62
2019-04-23T08:19:25.541Z,15.67
2019-04-23T08:22:04.624Z,15.75
2019-04-23T08:24:45.244Z,15.90
2019-04-23T08:27:22.659Z,16.01
2019-04-23T08:29:42.261Z,15.87
2019-04-23T08:32:13.926Z,15.84
2019-04-23T08:34:54.307Z,16.04
2019-04-23T08:37:26.915Z,15.98
2019-04-23T08:40:15.105Z,16.10
2019-04-23T08:42:39.613Z,16.24
2019-04-23T08:48:12.429Z,16.18
2019-04-23T08:50:32.673Z,16.24
2019-04-23T08:53:26.409Z,16.42
2019-04-23T08:55:44.540Z,16.49
2019-04-23T08:58:13.540Z,16.61
2019-04-23T09:00:52.630Z,16.77
2019-04-23T09:06:02.519Z,16.86
2019-04-23T09:08:39.396Z,16.77
2019-04-23T09:13:50.290Z,16.83
2019-04-23T09:16:16.304Z,16.66
2019-04-23T09:18:35.267Z,16.86
2019-04-23T09:21:10.540Z,16.92
2019-04-23T09:23:46.724Z,16.79
2019-04-23T09:26:20.571Z,16.93
2019-04-23T09:29:04.566Z,16.88
2019-04-23T09:32:13.503Z,16.87
2019-04-23T09:34:43.806Z,16.88
2019-04-23T09:40:20.510Z,17.01
2019-04-23T09:45:41.183Z,16.96
2019-04-23T09:48:11.582Z,16.89
2019-04-23T09:50:43.368Z,16.87
2019-04-23T09:55:45.614Z,16.91
2019-04-23T09:58:34.620Z,17.00
2019-04-23T10:01:23.679Z,17.06
2019-04-23T10:03:39.010Z,17.09
2019-04-23T10:06:04.167Z,17.09
2019-04-23T10:08:36.440Z,17.15
2019-04-23T10:11:02.939Z,17.21
2019-04-23T10:13:34.473Z,17.15
2019-04-23T10:16:06.887Z,17.14
2019-04-23T10:18:39.212Z,17.24
2019-04-23T10:21:11.196Z,17.28
2019-04-23T10:23:43.251Z,17.35
2019-04-23T10:26:14.355Z,17.31
2019-04-23T10:28:54.011Z,17.41
2019-04-23T10:31:33.492Z,17.46
2019-04-23T10:34:06.221Z,17.52
2019-04-23T10:36:38.672Z,17.67
2019-04-23T10:39:29.853Z,17.63
2019-04-23T10:42:01.812Z,17.64
2019-04-23T10:44:43.185Z,17.63
2019-04-23T10:48:19.531Z,17.73
2019-04-23T10:58:35.181Z,17.94
2019-04-23T11:01:16.711Z,18.14
2019-04-23T11:06:39.671Z,18.25
2019-04-23T11:09:15.670Z,18.27
2019-04-23T11:11:50.727Z,18.34
2019-04-23T11:14:25.576Z,18.50
2019-04-23T11:17:04.418Z,18.52
2019-04-23T11:19:32.381Z,18.66
2019-04-23T11:22:04.254Z,18.70
2019-04-23T11:27:09.999Z,18.79
2019-04-23T11:29:44.285Z,18.86
2019-04-23T11:38:01.636Z,19.02
2019-04-23T11:38:02.798Z,19.09
2019-04-23T11:39:44.216Z,19.38
2019-04-23T11:42:17.014Z,19.46
2019-04-23T11:47:47.034Z,19.49
2019-04-23T11:50:25.903Z,19.53
2019-04-23T11:52:43.663Z,19.62
2019-04-23T11:55:22.780Z,19.77
2019-04-23T11:57:41.123Z,19.75
2019-04-23T12:00:13.751Z,19.63
2019-04-23T12:05:32.340Z,19.56
2019-04-23T12:08:07.340Z,19.53
2019-04-23T12:11:00.488Z,19.52
2019-04-23T12:13:28.511Z,19.48
2019-04-23T12:15:53.431Z,19.61
2019-04-23T12:18:35.390Z,19.71
2019-04-23T12:20:56.560Z,19.77
2019-04-23T12:23:42.466Z,19.85
2019-04-23T12:26:13.549Z,19.78
2019-04-23T12:28:42.253Z,19.91
2019-04-23T12:31:10.171Z,19.94
2019-04-23T12:33:51.896Z,19.94
2019-04-23T12:36:41.039Z,20.03
2019-04-23T12:39:08.696Z,20.05
2019-04-23T12:41:41.712Z,20.10
2019-04-23T12:44:10.791Z,20.30
2019-04-23T12:46:45.804Z,20.17
2019-04-23T12:49:22.169Z,20.19
2019-04-23T12:51:50.308Z,20.28
2019-04-23T12:54:23.079Z,20.25
2019-04-23T12:57:01.347Z,20.13
2019-04-23T12:59:23.737Z,20.39
2019-04-23T13:01:57.460Z,20.21
2019-04-23T13:04:26.334Z,20.35
2019-04-23T13:06:57.892Z,20.36
2019-04-23T13:09:42.843Z,20.41
2019-04-23T13:12:12.577Z,20.45
2019-04-23T13:14:43.712Z,20.41
2019-04-23T13:17:21.294Z,20.55
2019-04-23T13:19:49.823Z,20.58
2019-04-23T13:22:21.515Z,20.60
2019-04-23T13:24:57.834Z,20.76
2019-04-23T13:27:42.354Z,20.74
2019-04-23T13:30:08.710Z,20.62
2019-04-23T13:32:36.004Z,20.68
2019-04-23T13:35:23.058Z,20.69
2019-04-23T13:37:56.913Z,20.70
2019-04-23T13:40:16.722Z,20.76
2019-04-23T13:45:56.362Z,20.81
2019-04-23T13:48:06.219Z,20.77
2019-04-23T13:50:37.261Z,20.68
2019-04-23T13:53:18.219Z,20.74
2019-04-23T13:55:24.803Z,20.78
2019-04-23T13:58:08.853Z,20.72
2019-04-23T14:00:44.693Z,20.76
2019-04-23T14:03:13.349Z,20.81
2019-04-23T14:05:49.495Z,20.76
2019-04-23T14:08:33.347Z,20.90
2019-04-23T14:11:10.753Z,21.01
2019-04-23T14:16:03.566Z,21.11
2019-04-23T14:18:53.874Z,21.13
2019-04-23T14:21:20.387Z,21.11
2019-04-23T14:24:07.992Z,21.12
2019-04-23T14:28:45.017Z,21.17
2019-04-23T14:31:17.497Z,21.22
2019-04-23T14:36:25.474Z,21.18
2019-04-23T14:39:22.051Z,21.24
2019-04-23T14:44:10.496Z,21.19
2019-04-23T14:46:50.025Z,21.21
2019-04-23T14:49:16.145Z,21.20
2019-04-23T14:51:58.965Z,21.24
2019-04-23T14:55:18.734Z,21.24
2019-04-23T14:57:23.210Z,21.22
2019-04-23T14:59:53.616Z,21.19
2019-04-23T15:02:28.834Z,21.25
2019-04-23T15:05:06.302Z,21.23
2019-04-23T15:12:52.317Z,21.35
2019-04-23T15:15:23.973Z,21.36
2019-04-23T15:18:07.465Z,21.45
2019-04-23T15:20:39.742Z,21.41
2019-04-23T15:25:53.200Z,21.52
2019-04-23T15:28:07.022Z,21.62
2019-04-23T15:30:47.315Z,21.71
2019-04-23T15:41:10.244Z,21.78
2019-04-23T15:43:34.348Z,21.78
2019-04-23T15:46:11.650Z,21.79
2019-04-23T15:48:44.682Z,21.80
2019-04-23T15:51:24.916Z,21.81
2019-04-23T15:53:44.433Z,21.87
2019-04-23T15:56:29.212Z,21.77
2019-04-23T15:59:02.546Z,21.57
2019-04-23T16:03:28.991Z,21.59
2019-04-23T16:05:59.365Z,21.57
2019-04-23T16:09:04.861Z,21.59
2019-04-23T16:14:20.402Z,21.63
2019-04-23T16:16:45.262Z,21.69
2019-04-23T16:19:17.607Z,21.67
2019-04-23T16:24:17.763Z,21.62
2019-04-23T16:26:55.806Z,21.57
2019-04-23T16:31:54.691Z,21.64
2019-04-23T16:34:30.005Z,21.57
2019-04-23T16:37:08.525Z,21.58
2019-04-23T16:39:48.313Z,21.56
2019-04-23T16:42:18.177Z,21.55
2019-04-23T16:45:03.885Z,21.51
2019-04-23T16:47:24.608Z,21.48
2019-04-23T16:50:05.003Z,21.45
2019-04-23T16:52:26.430Z,21.44
2019-04-23T16:57:43.791Z,21.36
2019-04-23T17:03:07.809Z,21.30
2019-04-23T17:05:19.520Z,21.30
2019-04-23T17:07:52.577Z,21.24
2019-04-23T17:10:23.953Z,21.23
2019-04-23T17:12:55.943Z,21.16
2019-04-23T17:15:27.483Z,21.11
2019-04-23T17:17:54.930Z,21.11
2019-04-23T17:20:31.297Z,21.09
2019-04-23T17:23:05.529Z,21.06
2019-04-23T17:25:32.956Z,21.02
2019-04-23T17:31:01.552Z,21.02
2019-04-23T17:33:28.580Z,20.99
2019-04-23T17:36:05.413Z,20.87
2019-04-23T17:38:36.106Z,20.86
2019-04-23T17:41:05.707Z,20.83
2019-04-23T17:43:42.343Z,20.77
2019-04-23T17:46:14.843Z,20.71
2019-04-23T17:48:40.150Z,20.67
2019-04-23T17:51:13.256Z,20.63
2019-04-23T17:53:48.759Z,20.56
2019-04-23T17:56:29.391Z,20.56
2019-04-23T17:59:14.084Z,20.53
2019-04-23T18:01:25.652Z,20.44
2019-04-23T18:06:50.777Z,20.33
2019-04-23T18:09:14.532Z,20.29
2019-04-23T18:11:39.964Z,20.20
2019-04-23T18:14:08.516Z,20.19
2019-04-23T18:16:47.747Z,20.14
2019-04-23T18:24:57.883Z,19.95
2019-04-23T18:27:31.008Z,19.85
2019-04-23T18:30:15.833Z,19.77
2019-04-23T18:32:58.400Z,19.70
2019-04-23T18:35:21.530Z,19.64
2019-04-23T18:37:52.337Z,19.61
2019-04-23T18:40:21.519Z,19.53
2019-04-23T18:42:54.209Z,19.45
2019-04-23T18:45:38.669Z,19.38
2019-04-23T18:48:09.978Z,19.33
2019-04-23T18:50:46.752Z,19.26
2019-04-23T18:53:09.732Z,19.20
2019-04-23T18:55:54.358Z,19.12
2019-04-23T18:58:34.679Z,19.03
2019-04-23T19:03:55.208Z,18.90
2019-04-23T19:09:10.029Z,18.79
2019-04-23T19:14:25.700Z,18.69
2019-04-23T19:17:08.968Z,18.63
2019-04-23T19:19:31.710Z,18.59
2019-04-23T19:24:37.698Z,18.48
2019-04-23T19:27:29.958Z,18.44
2019-04-23T19:29:58.393Z,18.39
2019-04-23T19:32:36.853Z,18.33
2019-04-23T19:35:32.316Z,18.25
2019-04-23T19:40:28.452Z,18.20
2019-04-23T19:42:55.377Z,18.14
2019-04-23T19:45:38.995Z,18.09
2019-04-23T19:48:07.077Z,18.07
2019-04-23T19:50:49.112Z,17.99
2019-04-23T19:56:00.149Z,17.94
2019-04-23T19:58:26.203Z,17.90
2019-04-23T20:06:02.706Z,17.79
2019-04-23T20:08:49.320Z,17.72
2019-04-23T20:13:45.358Z,17.67
2019-04-23T20:16:16.183Z,17.61
2019-04-23T20:21:33.726Z,17.57
2019-04-23T20:24:03.900Z,17.53
2019-04-23T20:29:23.193Z,17.52
2019-04-23T20:34:34.219Z,17.46
2019-04-23T20:36:53.406Z,17.44
2019-04-23T20:39:33.009Z,17.40
2019-04-23T20:42:09.013Z,17.41
2019-04-23T20:44:53.804Z,17.38
2019-04-23T20:52:10.338Z,17.38
2019-04-23T20:54:56.923Z,17.33
2019-04-23T21:00:04.737Z,17.32
2019-04-23T21:05:15.468Z,17.31
2019-04-23T21:10:34.836Z,17.27
2019-04-23T21:20:40.821Z,17.24
2019-04-23T21:23:11.302Z,17.29
2019-04-23T21:25:50.627Z,17.28
2019-04-23T21:28:26.658Z,17.35
2019-04-23T21:33:33.810Z,17.40
2019-04-23T21:36:15.624Z,17.42
2019-04-23T21:39:04.440Z,17.48
2019-04-23T21:41:44.814Z,17.48
2019-04-23T21:49:17.372Z,17.46
2019-04-23T21:54:12.934Z,17.42
2019-04-23T21:59:23.110Z,17.39
2019-04-23T22:07:09.987Z,17.21
2019-04-23T22:12:15.460Z,17.16
2019-04-23T22:17:24.968Z,17.11
2019-04-23T22:20:03.467Z,17.10
2019-04-23T22:22:41.986Z,17.04
2019-04-23T22:24:57.515Z,17.05
2019-04-23T22:27:32.863Z,17.07
2019-04-23T22:30:04.959Z,16.96
2019-04-23T22:32:47.622Z,16.99
2019-04-23T22:37:53.890Z,16.88
2019-04-23T22:43:24.817Z,16.90
2019-04-23T22:45:27.517Z,16.82
2019-04-23T22:48:06.959Z,16.82
2019-04-23T22:50:39.660Z,16.74
2019-04-23T22:55:49.846Z,16.60
2019-04-23T22:58:11.463Z,16.69
2019-04-23T23:01:10.649Z,16.59
2019-04-23T23:03:29.447Z,16.64
2019-04-23T23:11:02.226Z,16.53
2019-04-23T23:13:55.172Z,16.51
2019-04-23T23:16:07.281Z,16.53
2019-04-23T23:18:40.555Z,16.52
2019-04-23T23:21:16.359Z,16.51
2019-04-23T23:24:13.606Z,16.54
2019-04-23T23:26:33.557Z,16.43
2019-04-23T23:29:01.765Z,16.43
2019-04-23T23:31:37.305Z,16.48
2019-04-23T23:34:09.937Z,16.46
2019-04-23T23:36:51.458Z,16.50
2019-04-23T23:39:25.090Z,16.49
2019-04-23T23:41:50.126Z,16.55
2019-04-23T23:47:03.088Z,16.57
2019-04-23T23:51:57.838Z,16.54
2019-04-23T23:54:26.966Z,16.59
2019-04-23T23:57:13.946Z,16.58
